Time;durP1;ratioP1;P1;durP2;ratioP2;P2;SDS_P1;SDS_P2;PMS_P1;PMS_P2;Temp;Humidity;BMP_temperature;BMP_pressure;BME280_temperature;BME280_humidity;BME280_pressure;Samples;Min_cycle;Max_cycle;Signal;HPM_P1;HPM_P2
2024/04/21 00:01:08;;;;;;;46.58;42.00;;;;;;;;;;5520527;25;20557;-77
2024/04/21 00:03:39;;;;;;;45.45;41.65;;;;;;;;;;5521505;26;20261;-76
2024/04/21 00:06:05;;;;;;;43.85;39.85;;;;;;;;;;5491989;26;20293;-76
2024/04/21 00:08:34;;;;;;;43.10;39.40;;;;;;;;;;5520476;26;20233;-76
2024/04/21 00:11:00;;;;;;;45.75;41.58;;;;;;;;;;5520038;25;20297;-76
2024/04/21 00:13:29;;;;;;;48.97;44.38;;;;;;;;;;5524167;26;20237;-77
2024/04/21 00:15:55;;;;;;;44.22;40.17;;;;;;;;;;5523916;26;20235;-76
2024/04/21 00:18:24;;;;;;;43.83;40.47;;;;;;;;;;5522466;25;20239;-76
2024/04/21 00:20:53;;;;;;;45.42;41.17;;;;;;;;;;5524171;26;20269;-76
2024/04/21 00:23:23;;;;;;;46.85;42.17;;;;;;;;;;5523984;25;20240;-76
2024/04/21 00:25:55;;;;;;;49.97;44.28;;;;;;;;;;5524641;26;20278;-76
2024/04/21 00:28:24;;;;;;;49.80;45.20;;;;;;;;;;5523653;25;20723;-76
2024/04/21 00:30:50;;;;;;;46.58;42.55;;;;;;;;;;5503845;26;20243;-77
2024/04/21 00:33:19;;;;;;;46.80;42.78;;;;;;;;;;5523037;25;20236;-76
2024/04/21 00:35:45;;;;;;;47.58;43.47;;;;;;;;;;5523982;25;20262;-76
2024/04/21 00:38:18;;;;;;;47.15;43.22;;;;;;;;;;5522699;25;20252;-76
2024/04/21 00:40:44;;;;;;;46.88;42.42;;;;;;;;;;5497871;26;20267;-76
2024/04/21 00:43:13;;;;;;;46.75;42.95;;;;;;;;;;5489185;26;20624;-76
2024/04/21 00:45:41;;;;;;;46.97;42.83;;;;;;;;;;5523643;25;20226;-76
2024/04/21 00:48:10;;;;;;;50.97;46.28;;;;;;;;;;5523750;25;20224;-75
2024/04/21 00:50:37;;;;;;;49.90;45.70;;;;;;;;;;5522703;25;20273;-76
2024/04/21 00:53:05;;;;;;;50.05;45.45;;;;;;;;;;5524542;25;20275;-77
2024/04/21 00:55:34;;;;;;;50.42;46.33;;;;;;;;;;5523376;25;20240;-77
2024/04/21 00:58:03;;;;;;;51.20;46.47;;;;;;;;;;5522311;26;20238;-77
2024/04/21 01:00:29;;;;;;;49.95;45.75;;;;;;;;;;5521956;25;20251;-77
2024/04/21 01:02:58;;;;;;;55.70;51.05;;;;;;;;;;5523043;25;20241;-76
2024/04/21 01:05:26;;;;;;;57.08;51.67;;;;;;;;;;5509570;25;20232;-76
2024/04/21 01:07:54;;;;;;;55.50;51.58;;;;;;;;;;5523046;26;21178;-76
2024/04/21 01:10:20;;;;;;;54.58;50.33;;;;;;;;;;5522435;25;20595;-76
2024/04/21 01:12:52;;;;;;;54.20;49.50;;;;;;;;;;5523102;25;20281;-75
2024/04/21 01:15:18;;;;;;;57.92;53.83;;;;;;;;;;5490038;26;20296;-76
2024/04/21 01:17:47;;;;;;;58.30;53.55;;;;;;;;;;5523381;26;20239;-77
2024/04/21 01:20:13;;;;;;;55.22;51.33;;;;;;;;;;5522263;26;20266;-77
2024/04/21 01:22:46;;;;;;;56.22;51.45;;;;;;;;;;5521466;25;20260;-75
2024/04/21 01:25:12;;;;;;;57.50;52.67;;;;;;;;;;5489327;26;20719;-76
2024/04/21 01:27:41;;;;;;;58.03;53.95;;;;;;;;;;5524068;26;20588;-76
2024/04/21 01:30:08;;;;;;;56.83;53.10;;;;;;;;;;5523353;26;20224;-76
2024/04/21 01:32:37;;;;;;;57.42;53.05;;;;;;;;;;5523362;26;20315;-76
2024/04/21 01:35:04;;;;;;;58.85;54.40;;;;;;;;;;5523602;26;20778;-77
2024/04/21 01:37:32;;;;;;;54.85;50.42;;;;;;;;;;5524141;26;20273;-76
2024/04/21 01:40:01;;;;;;;58.80;54.08;;;;;;;;;;5522513;26;20695;-77
2024/04/21 01:42:30;;;;;;;58.30;54.20;;;;;;;;;;5524499;25;20770;-76
2024/04/21 01:44:56;;;;;;;61.03;55.63;;;;;;;;;;5506637;25;20781;-76
2024/04/21 01:47:24;;;;;;;64.97;59.92;;;;;;;;;;5486765;26;20292;-75
2024/04/21 01:49:50;;;;;;;61.78;57.17;;;;;;;;;;5516969;26;20279;-76
2024/04/21 01:52:19;;;;;;;60.22;55.92;;;;;;;;;;5522750;26;20244;-76
2024/04/21 01:54:45;;;;;;;58.50;54.10;;;;;;;;;;5524046;25;20282;-76
2024/04/21 01:57:16;;;;;;;63.20;58.42;;;;;;;;;;5523511;26;20278;-76
2024/04/21 01:59:42;;;;;;;63.05;58.42;;;;;;;;;;5523389;26;20607;-76
2024/04/21 02:02:11;;;;;;;63.13;57.25;;;;;;;;;;5523782;25;20744;-75
2024/04/21 02:04:37;;;;;;;61.53;57.83;;;;;;;;;;5488507;25;897284;-77
2024/04/21 02:07:09;;;;;;;67.40;63.80;;;;;;;;;;5521198;25;20258;-77
2024/04/21 02:09:36;;;;;;;64.25;60.55;;;;;;;;;;5487342;26;20263;-77
2024/04/21 02:12:05;;;;;;;62.78;59.30;;;;;;;;;;5524022;25;20266;-76
2024/04/21 02:14:33;;;;;;;64.05;60.55;;;;;;;;;;5523818;26;20219;-76
2024/04/21 02:17:02;;;;;;;57.70;54.40;;;;;;;;;;5522960;25;20243;-76
2024/04/21 02:19:28;;;;;;;61.47;58.05;;;;;;;;;;5522417;26;20802;-76
2024/04/21 02:21:58;;;;;;;63.22;59.60;;;;;;;;;;5523421;25;20240;-76
2024/04/21 02:24:25;;;;;;;59.88;56.47;;;;;;;;;;5516416;25;20236;-74
2024/04/21 02:26:53;;;;;;;60.28;56.88;;;;;;;;;;5499249;26;20760;-76
2024/04/21 02:29:19;;;;;;;61.75;58.35;;;;;;;;;;5485957;26;20225;-77
2024/04/21 02:31:50;;;;;;;64.88;61.38;;;;;;;;;;5486871;26;20232;-76
2024/04/21 02:34:16;;;;;;;61.55;57.40;;;;;;;;;;5486290;26;20255;-75
2024/04/21 02:36:45;;;;;;;68.28;64.53;;;;;;;;;;5516690;25;20250;-76
2024/04/21 02:39:11;;;;;;;65.38;61.67;;;;;;;;;;5522766;25;20223;-75
2024/04/21 02:41:40;;;;;;;68.63;64.82;;;;;;;;;;5523646;25;20243;-76
2024/04/21 02:44:07;;;;;;;71.97;68.07;;;;;;;;;;5523187;26;21072;-76
2024/04/21 02:46:36;;;;;;;66.28;62.58;;;;;;;;;;5523041;25;20239;-77
2024/04/21 02:49:04;;;;;;;73.32;69.32;;;;;;;;;;5523063;25;20259;-76
2024/04/21 02:51:33;;;;;;;76.57;72.57;;;;;;;;;;5523259;25;20244;-75
2024/04/21 02:54:02;;;;;;;80.28;75.93;;;;;;;;;;5522643;25;20215;-76
2024/04/21 02:56:30;;;;;;;73.60;69.70;;;;;;;;;;5521796;26;20229;-79
2024/04/21 02:58:56;;;;;;;74.53;70.57;;;;;;;;;;5521239;25;20559;-76
2024/04/21 03:01:25;;;;;;;79.38;75.32;;;;;;;;;;5522428;25;20559;-76
2024/04/21 03:03:51;;;;;;;86.25;81.95;;;;;;;;;;5515144;25;20270;-76
2024/04/21 03:06:22;;;;;;;84.78;80.28;;;;;;;;;;5507706;26;20244;-75
2024/04/21 03:08:48;;;;;;;82.07;77.70;;;;;;;;;;5521637;26;20223;-77
2024/04/21 03:11:17;;;;;;;82.10;78.10;;;;;;;;;;5521637;25;20260;-76
2024/04/21 03:13:43;;;;;;;80.72;76.65;;;;;;;;;;5521664;26;20236;-76
2024/04/21 03:16:11;;;;;;;80.20;76.18;;;;;;;;;;5520544;26;20641;-77
2024/04/21 03:18:38;;;;;;;81.55;77.45;;;;;;;;;;5520518;26;20227;-77
2024/04/21 03:21:07;;;;;;;89.43;85.13;;;;;;;;;;5523755;25;20326;-76
2024/04/21 03:23:35;;;;;;;88.10;83.78;;;;;;;;;;5502811;26;20275;-76
2024/04/21 03:26:04;;;;;;;87.25;82.72;;;;;;;;;;5486154;26;20251;-75
2024/04/21 03:28:30;;;;;;;86.97;82.78;;;;;;;;;;5486127;26;20780;-76
2024/04/21 03:30:59;;;;;;;88.70;84.50;;;;;;;;;;5485424;26;20600;-76
2024/04/21 03:33:25;;;;;;;91.57;87.13;;;;;;;;;;5485475;26;20703;-77
2024/04/21 03:36:04;;;;;;;90.35;85.82;;;;;;;;;;5485597;26;20295;-75
2024/04/21 03:38:33;;;;;;;86.53;81.90;;;;;;;;;;5498049;26;20742;-76
2024/04/21 03:41:05;;;;;;;86.18;81.95;;;;;;;;;;5521079;25;20262;-76
2024/04/21 03:43:34;;;;;;;90.63;86.32;;;;;;;;;;5521777;25;20234;-76
2024/04/21 03:46:00;;;;;;;94.00;89.43;;;;;;;;;;5521422;26;20262;-76
2024/04/21 03:48:28;;;;;;;89.40;85.07;;;;;;;;;;5521460;26;20238;-76
2024/04/21 03:50:54;;;;;;;90.75;86.38;;;;;;;;;;5521740;26;20224;-76
2024/04/21 03:53:24;;;;;;;92.88;88.38;;;;;;;;;;5521657;25;20239;-76
2024/04/21 03:55:50;;;;;;;91.47;86.65;;;;;;;;;;5521225;26;20935;-77
2024/04/21 03:58:21;;;;;;;95.25;90.55;;;;;;;;;;5492654;26;20233;-75
2024/04/21 04:00:47;;;;;;;94.32;89.70;;;;;;;;;;5485361;26;20224;-75
2024/04/21 04:03:16;;;;;;;96.57;91.68;;;;;;;;;;5496445;26;20584;-76
2024/04/21 04:05:43;;;;;;;98.95;94.15;;;;;;;;;;5521316;26;20274;-76
2024/04/21 04:08:12;;;;;;;93.18;88.28;;;;;;;;;;5520598;26;20552;-75
2024/04/21 04:10:38;;;;;;;101.28;96.07;;;;;;;;;;5505500;26;20255;-77
2024/04/21 04:13:07;;;;;;;96.78;91.68;;;;;;;;;;5482966;26;20337;-76
2024/04/21 04:15:36;;;;;;;96.97;91.88;;;;;;;;;;5484701;26;20590;-76
2024/04/21 04:18:04;;;;;;;91.70;87.13;;;;;;;;;;5484681;26;20354;-76
2024/04/21 04:20:30;;;;;;;93.65;88.95;;;;;;;;;;5488839;26;20229;-76
2024/04/21 04:22:59;;;;;;;97.60;92.70;;;;;;;;;;5522061;25;20335;-76
2024/04/21 04:25:26;;;;;;;93.70;89.00;;;;;;;;;;5520774;25;20281;-77
2024/04/21 04:27:55;;;;;;;98.68;93.65;;;;;;;;;;5521044;26;20228;-74
2024/04/21 04:30:22;;;;;;;97.38;92.22;;;;;;;;;;5519526;26;20233;-73
2024/04/21 04:32:54;;;;;;;93.38;88.53;;;;;;;;;;5520822;25;20246;-75
2024/04/21 04:35:20;;;;;;;95.85;91.05;;;;;;;;;;5521062;25;20282;-76
2024/04/21 04:37:49;;;;;;;94.45;89.45;;;;;;;;;;5520791;26;20585;-76
2024/04/21 04:40:15;;;;;;;94.78;89.93;;;;;;;;;;5520526;26;20577;-74
2024/04/21 04:42:44;;;;;;;97.47;92.47;;;;;;;;;;5521802;26;20563;-75
2024/04/21 04:45:10;;;;;;;109.63;103.53;;;;;;;;;;5519904;25;20385;-75
2024/04/21 04:47:39;;;;;;;101.60;96.38;;;;;;;;;;5520363;26;20232;-74
2024/04/21 04:50:10;;;;;;;102.28;96.88;;;;;;;;;;5520208;26;20223;-73
2024/04/21 04:52:38;;;;;;;103.88;98.38;;;;;;;;;;5518849;26;20271;-74
2024/04/21 04:55:06;;;;;;;101.40;96.03;;;;;;;;;;5519921;26;20225;-74
2024/04/21 04:57:35;;;;;;;99.53;94.25;;;;;;;;;;5520309;25;20256;-73
2024/04/21 05:00:01;;;;;;;102.80;97.65;;;;;;;;;;5522566;25;20247;-73
2024/04/21 05:02:30;;;;;;;105.32;99.78;;;;;;;;;;5524559;25;20244;-75
2024/04/21 05:04:56;;;;;;;113.25;107.75;;;;;;;;;;5524454;25;20227;-74
2024/04/21 05:07:27;;;;;;;108.20;102.90;;;;;;;;;;5523335;25;20239;-73
2024/04/21 05:09:53;;;;;;;107.47;102.22;;;;;;;;;;5522494;26;20239;-74
2024/04/21 05:12:22;;;;;;;106.63;101.20;;;;;;;;;;5496490;25;20236;-73
2024/04/21 05:14:48;;;;;;;108.32;102.75;;;;;;;;;;5510023;26;20275;-75
2024/04/21 05:17:17;;;;;;;113.65;107.97;;;;;;;;;;5487088;26;20263;-73
2024/04/21 05:19:43;;;;;;;107.43;101.47;;;;;;;;;;5485236;26;21137;-74
2024/04/21 05:22:11;;;;;;;110.82;105.10;;;;;;;;;;5487652;26;20233;-74
2024/04/21 05:24:40;;;;;;;111.35;105.85;;;;;;;;;;5486692;26;20592;-74
2024/04/21 05:27:09;;;;;;;110.75;105.20;;;;;;;;;;5487103;26;20217;-74
2024/04/21 05:29:35;;;;;;;104.55;98.85;;;;;;;;;;5518952;25;20284;-74
2024/04/21 05:32:03;;;;;;;107.57;101.97;;;;;;;;;;5523096;25;20369;-74
2024/04/21 05:34:29;;;;;;;105.57;100.20;;;;;;;;;;5523738;25;20366;-74
2024/04/21 05:36:58;;;;;;;105.60;100.25;;;;;;;;;;5524203;25;20233;-74
2024/04/21 05:39:25;;;;;;;105.03;99.82;;;;;;;;;;5522285;25;20689;-74
2024/04/21 05:41:56;;;;;;;100.18;94.85;;;;;;;;;;5507034;25;20816;-74
2024/04/21 05:44:22;;;;;;;102.43;97.22;;;;;;;;;;5486871;26;20228;-74
2024/04/21 05:46:51;;;;;;;103.07;97.00;;;;;;;;;;5486344;26;20276;-75
2024/04/21 05:49:19;;;;;;;102.40;97.03;;;;;;;;;;5485546;26;20223;-73
2024/04/21 05:51:48;;;;;;;101.28;96.05;;;;;;;;;;5486774;26;20672;-73
2024/04/21 05:54:15;;;;;;;103.10;96.90;;;;;;;;;;5518605;26;20291;-73
2024/04/21 05:56:43;;;;;;;99.15;94.03;;;;;;;;;;5497524;25;20228;-73
2024/04/21 05:59:12;;;;;;;106.20;100.80;;;;;;;;;;5517297;26;20224;-75
2024/04/21 06:01:40;;;;;;;99.15;93.70;;;;;;;;;;5486818;26;20303;-74
2024/04/21 06:04:07;;;;;;;105.70;99.95;;;;;;;;;;5486221;26;20322;-75
2024/04/21 06:06:35;;;;;;;102.68;97.32;;;;;;;;;;5486053;26;20287;-73
2024/04/21 06:09:01;;;;;;;102.43;96.50;;;;;;;;;;5493634;26;20223;-74
2024/04/21 06:11:30;;;;;;;106.28;100.60;;;;;;;;;;5491738;25;20241;-74
2024/04/21 06:13:56;;;;;;;108.00;102.00;;;;;;;;;;5523026;25;20267;-75
2024/04/21 06:16:27;;;;;;;98.63;93.03;;;;;;;;;;5524063;26;20440;-75
2024/04/21 06:18:53;;;;;;;92.20;87.38;;;;;;;;;;5522584;26;20584;-74
2024/04/21 06:21:22;;;;;;;97.85;92.45;;;;;;;;;;5522384;25;20775;-75
2024/04/21 06:23:48;;;;;;;102.72;97.32;;;;;;;;;;5522300;25;20333;-75
2024/04/21 06:26:17;;;;;;;99.72;94.32;;;;;;;;;;5520907;25;20236;-76
2024/04/21 06:28:43;;;;;;;98.57;93.35;;;;;;;;;;5507221;26;20281;-74
2024/04/21 06:31:12;;;;;;;92.40;87.30;;;;;;;;;;5518151;25;20266;-74
2024/04/21 06:33:41;;;;;;;100.45;95.10;;;;;;;;;;5485689;26;20230;-74
2024/04/21 06:36:10;;;;;;;92.47;87.70;;;;;;;;;;5500147;25;20248;-79
2024/04/21 06:38:36;;;;;;;94.05;88.80;;;;;;;;;;5497036;26;20239;-80
2024/04/21 06:41:04;;;;;;;96.65;91.13;;;;;;;;;;5524285;25;20239;-79
2024/04/21 06:43:31;;;;;;;93.47;88.45;;;;;;;;;;5512317;25;20245;-74
2024/04/21 06:45:59;;;;;;;94.47;89.20;;;;;;;;;;5510506;25;20248;-81
2024/04/21 06:48:25;;;;;;;96.20;91.07;;;;;;;;;;5525164;26;20221;-80
2024/04/21 06:50:56;;;;;;;91.43;86.82;;;;;;;;;;5525960;26;20552;-81
2024/04/21 06:53:22;;;;;;;93.75;88.75;;;;;;;;;;5525215;26;20254;-81
2024/04/21 06:55:51;;;;;;;100.32;94.85;;;;;;;;;;5525577;25;20331;-81
2024/04/21 06:58:18;;;;;;;101.75;96.25;;;;;;;;;;5526165;25;20224;-80
2024/04/21 07:00:47;;;;;;;96.20;91.03;;;;;;;;;;5525790;26;20230;-79
2024/04/21 07:03:14;;;;;;;95.95;90.95;;;;;;;;;;5525322;25;20778;-80
2024/04/21 07:05:43;;;;;;;97.85;92.65;;;;;;;;;;5524700;26;20283;-83
2024/04/21 07:08:11;;;;;;;92.35;87.28;;;;;;;;;;5524530;25;20565;-80
2024/04/21 07:10:40;;;;;;;92.13;87.45;;;;;;;;;;5526514;26;20339;-80
2024/04/21 07:13:06;;;;;;;91.07;86.55;;;;;;;;;;5526094;25;20239;-80
2024/04/21 07:15:35;;;;;;;87.10;82.82;;;;;;;;;;5507177;26;20328;-80
2024/04/21 07:18:01;;;;;;;89.00;84.30;;;;;;;;;;5489520;26;20261;-81
2024/04/21 07:20:29;;;;;;;92.85;88.15;;;;;;;;;;5489675;26;20910;-81
2024/04/21 07:22:56;;;;;;;89.43;84.68;;;;;;;;;;5513971;25;20290;-80
2024/04/21 07:25:27;;;;;;;89.18;84.75;;;;;;;;;;5525819;26;20245;-82
2024/04/21 07:27:53;;;;;;;86.00;81.40;;;;;;;;;;5524362;26;20224;-77
2024/04/21 07:30:22;;;;;;;92.93;88.07;;;;;;;;;;5522417;26;20903;-73
2024/04/21 07:32:48;;;;;;;85.95;81.55;;;;;;;;;;5520493;25;20247;-73
2024/04/21 07:35:16;;;;;;;90.75;85.85;;;;;;;;;;5521787;26;20362;-72
2024/04/21 07:37:42;;;;;;;84.88;80.38;;;;;;;;;;5520834;26;20215;-72
2024/04/21 07:40:13;;;;;;;85.22;80.95;;;;;;;;;;5509776;25;20233;-72
2024/04/21 07:42:44;;;;;;;84.30;79.95;;;;;;;;;;5521695;25;20235;-80
2024/04/21 07:45:14;;;;;;;85.85;81.28;;;;;;;;;;5491665;25;20304;-86
2024/04/21 07:47:41;;;;;;;82.85;78.75;;;;;;;;;;5523826;26;20570;-77
2024/04/21 07:50:10;;;;;;;85.22;80.82;;;;;;;;;;5519250;26;21108;-76
2024/04/21 07:52:37;;;;;;;83.53;78.90;;;;;;;;;;5519988;25;20236;-72
2024/04/21 07:55:06;;;;;;;82.47;78.18;;;;;;;;;;5520564;25;20241;-74
2024/04/21 07:57:34;;;;;;;86.32;81.95;;;;;;;;;;5519232;26;20275;-77
2024/04/21 08:00:42;;;;;;;84.22;79.65;;;;;;;;;;5520264;25;20320;-74
2024/04/21 08:03:12;;;;;;;82.78;78.53;;;;;;;;;;5483321;26;20576;-75
2024/04/21 08:05:43;;;;;;;79.82;75.57;;;;;;;;;;5484674;26;20249;-74
2024/04/21 08:08:11;;;;;;;73.82;70.25;;;;;;;;;;5485332;26;20271;-75
2024/04/21 08:10:45;;;;;;;74.07;70.28;;;;;;;;;;5486905;26;20910;-80
2024/04/21 08:13:11;;;;;;;59.70;56.30;;;;;;;;;;5521365;26;20302;-82
2024/04/21 08:15:41;;;;;;;61.45;58.00;;;;;;;;;;5525462;25;20720;-82
2024/04/21 08:18:07;;;;;;;60.60;56.83;;;;;;;;;;5524662;26;20223;-82
2024/04/21 08:20:40;;;;;;;61.13;57.57;;;;;;;;;;5524016;26;20231;-75
2024/04/21 08:23:07;;;;;;;64.60;60.85;;;;;;;;;;5521606;25;20980;-77
2024/04/21 08:25:36;;;;;;;75.43;69.50;;;;;;;;;;5521271;25;20314;-74
2024/04/21 08:28:03;;;;;;;58.63;55.28;;;;;;;;;;5521406;26;20454;-76
2024/04/21 08:30:32;;;;;;;54.15;51.30;;;;;;;;;;5521872;26;20336;-75
2024/04/21 08:32:59;;;;;;;53.77;50.83;;;;;;;;;;5522909;25;20236;-77
2024/04/21 08:35:34;;;;;;;53.13;50.27;;;;;;;;;;5525126;25;20521;-76
2024/04/21 08:38:04;;;;;;;49.90;47.30;;;;;;;;;;5524334;26;20537;-76
2024/04/21 08:40:36;;;;;;;48.88;46.28;;;;;;;;;;5524352;26;20224;-75
2024/04/21 08:43:04;;;;;;;46.85;44.10;;;;;;;;;;5524051;25;20286;-74
2024/04/21 08:45:34;;;;;;;39.83;37.47;;;;;;;;;;5524792;26;20320;-74
2024/04/21 08:48:00;;;;;;;36.95;34.88;;;;;;;;;;5524423;25;20494;-74
2024/04/21 08:50:29;;;;;;;36.30;34.30;;;;;;;;;;5523846;25;20637;-75
2024/04/21 08:52:56;;;;;;;33.90;32.10;;;;;;;;;;5524446;25;20441;-75
2024/04/21 08:55:32;;;;;;;31.77;30.07;;;;;;;;;;5523652;26;20512;-75
2024/04/21 08:57:59;;;;;;;31.33;29.63;;;;;;;;;;5523349;25;20489;-76
2024/04/21 09:00:30;;;;;;;31.33;29.63;;;;;;;;;;5525043;25;20448;-76
2024/04/21 09:02:56;;;;;;;30.75;29.08;;;;;;;;;;5525021;25;20450;-74
2024/04/21 09:05:26;;;;;;;30.87;28.93;;;;;;;;;;5524912;25;20241;-74
2024/04/21 09:07:52;;;;;;;31.03;29.23;;;;;;;;;;5522690;25;20502;-75
2024/04/21 09:10:21;;;;;;;30.87;29.17;;;;;;;;;;5522972;26;20461;-75
2024/04/21 09:12:50;;;;;;;28.70;26.90;;;;;;;;;;5524053;25;20454;-74
2024/04/21 09:15:19;;;;;;;29.37;27.77;;;;;;;;;;5524384;25;20516;-75
2024/04/21 09:17:45;;;;;;;25.17;23.87;;;;;;;;;;5524942;25;20475;-75
2024/04/21 09:20:14;;;;;;;26.67;25.17;;;;;;;;;;5523448;25;20547;-75
2024/04/21 09:22:40;;;;;;;24.13;22.90;;;;;;;;;;5524571;25;20485;-74
2024/04/21 09:25:10;;;;;;;24.50;23.20;;;;;;;;;;5525016;26;20272;-74
2024/04/21 09:27:36;;;;;;;22.77;21.57;;;;;;;;;;5525037;26;20470;-75
2024/04/21 09:30:08;;;;;;;24.67;23.10;;;;;;;;;;5524574;26;20978;-76
2024/04/21 09:32:35;;;;;;;23.03;21.73;;;;;;;;;;5525108;25;20473;-76
2024/04/21 09:35:09;;;;;;;21.87;20.67;;;;;;;;;;5524607;25;20481;-75
2024/04/21 09:37:45;;;;;;;21.37;20.17;;;;;;;;;;5524929;25;20559;-76
2024/04/21 09:40:19;;;;;;;20.70;19.40;;;;;;;;;;5523857;25;20468;-75
2024/04/21 09:42:50;;;;;;;21.27;20.07;;;;;;;;;;5524652;25;20484;-74
2024/04/21 09:45:20;;;;;;;21.17;19.97;;;;;;;;;;5501042;25;20449;-75
2024/04/21 09:47:51;;;;;;;21.00;19.90;;;;;;;;;;5486879;26;20466;-74
2024/04/21 09:50:20;;;;;;;22.00;20.77;;;;;;;;;;5486301;26;20529;-74
2024/04/21 09:52:50;;;;;;;20.33;18.93;;;;;;;;;;5519721;25;20477;-79
2024/04/21 09:55:18;;;;;;;20.07;18.97;;;;;;;;;;5523675;25;20490;-78
2024/04/21 09:57:47;;;;;;;20.93;19.70;;;;;;;;;;5524067;25;20454;-74
2024/04/21 10:00:14;;;;;;;19.10;18.10;;;;;;;;;;5521877;25;20470;-73
2024/04/21 10:02:48;;;;;;;20.20;19.10;;;;;;;;;;5523732;25;21021;-75
2024/04/21 10:05:15;;;;;;;21.87;20.57;;;;;;;;;;5524295;25;20509;-74
2024/04/21 10:07:46;;;;;;;20.43;19.33;;;;;;;;;;5521474;26;20562;-74
2024/04/21 10:10:16;;;;;;;21.43;20.33;;;;;;;;;;5523194;25;20949;-74
2024/04/21 10:12:45;;;;;;;20.93;19.87;;;;;;;;;;5523958;25;20985;-74
2024/04/21 10:15:13;;;;;;;20.37;19.37;;;;;;;;;;5524312;26;20454;-75
2024/04/21 10:17:42;;;;;;;20.27;19.27;;;;;;;;;;5524293;25;20430;-74
2024/04/21 10:20:11;;;;;;;21.07;19.97;;;;;;;;;;5522927;25;20438;-74
2024/04/21 10:22:42;;;;;;;20.93;19.73;;;;;;;;;;5520807;25;20475;-74
2024/04/21 10:25:08;;;;;;;20.83;19.73;;;;;;;;;;5513387;25;20467;-74
2024/04/21 10:27:37;;;;;;;20.23;19.13;;;;;;;;;;5487020;26;20460;-74
2024/04/21 10:30:11;;;;;;;20.17;19.10;;;;;;;;;;5486574;26;20437;-74
2024/04/21 10:32:39;;;;;;;20.83;19.80;;;;;;;;;;5502008;26;20486;-78
2024/04/21 10:35:06;;;;;;;22.50;21.30;;;;;;;;;;5527035;25;20818;-79
2024/04/21 10:37:37;;;;;;;22.00;20.70;;;;;;;;;;5509610;25;20460;-81
2024/04/21 10:40:05;;;;;;;24.50;23.40;;;;;;;;;;5523684;26;21049;-79
2024/04/21 10:42:35;;;;;;;24.33;23.23;;;;;;;;;;5513228;26;20527;-79
2024/04/21 10:45:01;;;;;;;25.73;24.43;;;;;;;;;;5521322;26;20499;-78
2024/04/21 10:47:30;;;;;;;25.93;24.70;;;;;;;;;;5519448;26;20522;-75
2024/04/21 10:49:56;;;;;;;25.40;24.30;;;;;;;;;;5522273;26;20510;-74
2024/04/21 10:52:25;;;;;;;26.50;25.30;;;;;;;;;;5522754;25;20808;-75
2024/04/21 10:54:55;;;;;;;26.87;25.57;;;;;;;;;;5522887;26;20564;-75
2024/04/21 10:57:27;;;;;;;25.17;24.07;;;;;;;;;;5519284;26;20470;-81
2024/04/21 10:59:53;;;;;;;26.50;25.20;;;;;;;;;;5522560;25;21030;-73
2024/04/21 11:02:22;;;;;;;25.37;24.17;;;;;;;;;;5495047;25;20472;-74
2024/04/21 11:04:53;;;;;;;23.10;21.90;;;;;;;;;;5486831;26;20495;-75
2024/04/21 11:07:22;;;;;;;22.67;21.37;;;;;;;;;;5486783;26;20839;-75
2024/04/21 11:09:49;;;;;;;23.90;22.70;;;;;;;;;;5486080;26;20459;-74
2024/04/21 11:12:21;;;;;;;22.87;21.47;;;;;;;;;;5485760;26;20577;-75
2024/04/21 11:14:49;;;;;;;23.77;22.57;;;;;;;;;;5486030;26;20440;-76
2024/04/21 11:17:21;;;;;;;24.80;23.50;;;;;;;;;;5485578;26;20970;-75
2024/04/21 11:19:48;;;;;;;24.10;22.80;;;;;;;;;;5485129;26;20516;-76
2024/04/21 11:22:19;;;;;;;23.20;22.00;;;;;;;;;;5486717;26;20464;-75
2024/04/21 11:24:56;;;;;;;23.27;22.07;;;;;;;;;;5494374;25;20489;-76
2024/04/21 11:27:27;;;;;;;21.70;20.60;;;;;;;;;;5520935;25;20531;-75
2024/04/21 11:29:57;;;;;;;21.90;20.70;;;;;;;;;;5522575;25;20506;-77
2024/04/21 11:32:26;;;;;;;21.70;20.30;;;;;;;;;;5523050;25;20667;-76
2024/04/21 11:34:54;;;;;;;21.80;20.70;;;;;;;;;;5522291;25;21085;-76
2024/04/21 11:37:24;;;;;;;22.03;20.73;;;;;;;;;;5520471;25;20461;-77
2024/04/21 11:39:51;;;;;;;21.40;20.20;;;;;;;;;;5521113;25;20453;-76
2024/04/21 11:42:25;;;;;;;22.30;21.10;;;;;;;;;;5522037;25;20650;-75
2024/04/21 11:44:54;;;;;;;18.50;17.40;;;;;;;;;;5521707;25;20469;-76
2024/04/21 11:47:24;;;;;;;20.40;19.10;;;;;;;;;;5521909;25;20455;-77
2024/04/21 11:49:50;;;;;;;19.40;18.20;;;;;;;;;;5521803;25;20498;-76
2024/04/21 11:52:20;;;;;;;18.37;17.27;;;;;;;;;;5521044;25;20554;-76
2024/04/21 11:54:48;;;;;;;19.00;17.80;;;;;;;;;;5521943;25;20466;-76
2024/04/21 11:57:18;;;;;;;18.07;16.97;;;;;;;;;;5521873;26;20461;-76
2024/04/21 11:59:45;;;;;;;17.90;16.70;;;;;;;;;;5520841;25;20438;-76
2024/04/21 12:02:18;;;;;;;18.53;17.33;;;;;;;;;;5522084;25;20546;-76
2024/04/21 12:04:44;;;;;;;18.60;17.40;;;;;;;;;;5521879;25;20829;-75
2024/04/21 12:07:22;;;;;;;17.80;16.60;;;;;;;;;;5522622;25;20497;-76
2024/04/21 12:09:48;;;;;;;18.80;17.60;;;;;;;;;;5524652;25;20489;-75
2024/04/21 12:12:17;;;;;;;18.73;17.20;;;;;;;;;;5525460;25;20544;-76
2024/04/21 12:14:45;;;;;;;18.20;16.90;;;;;;;;;;5525501;25;20579;-77
2024/04/21 12:17:18;;;;;;;19.10;17.90;;;;;;;;;;5526216;25;20541;-75
2024/04/21 12:19:45;;;;;;;17.57;16.47;;;;;;;;;;5525214;25;20904;-76
2024/04/21 12:22:14;;;;;;;20.23;18.83;;;;;;;;;;5525044;25;20483;-75
2024/04/21 12:24:40;;;;;;;19.07;17.77;;;;;;;;;;5524888;25;20468;-77
2024/04/21 12:27:09;;;;;;;18.97;17.77;;;;;;;;;;5525067;25;20509;-76
2024/04/21 12:29:35;;;;;;;18.37;17.00;;;;;;;;;;5523880;25;20457;-77
2024/04/21 12:32:07;;;;;;;16.70;15.57;;;;;;;;;;5525439;25;20998;-76
2024/04/21 12:34:36;;;;;;;17.80;16.50;;;;;;;;;;5525075;25;20999;-76
2024/04/21 12:37:05;;;;;;;18.23;17.03;;;;;;;;;;5525241;25;20436;-76
2024/04/21 12:39:33;;;;;;;18.73;17.43;;;;;;;;;;5524393;25;20535;-76
2024/04/21 12:42:04;;;;;;;18.13;16.93;;;;;;;;;;5525560;25;20868;-76
2024/04/21 12:44:31;;;;;;;18.27;17.07;;;;;;;;;;5525584;25;20977;-77
2024/04/21 12:46:59;;;;;;;17.93;16.50;;;;;;;;;;5524710;25;20550;-77
2024/04/21 12:49:27;;;;;;;18.10;16.43;;;;;;;;;;5525140;25;20522;-75
2024/04/21 12:52:03;;;;;;;18.23;16.93;;;;;;;;;;5525424;25;20471;-76
2024/04/21 12:54:30;;;;;;;17.33;16.13;;;;;;;;;;5523506;25;20514;-76
2024/04/21 12:57:02;;;;;;;17.77;16.47;;;;;;;;;;5525102;25;20463;-77
2024/04/21 12:59:30;;;;;;;16.90;15.70;;;;;;;;;;5523813;25;20514;-76
2024/04/21 13:01:59;;;;;;;17.17;15.87;;;;;;;;;;5522750;25;20462;-77
2024/04/21 13:04:25;;;;;;;17.83;16.53;;;;;;;;;;5487064;26;21019;-75
2024/04/21 13:06:54;;;;;;;16.90;15.60;;;;;;;;;;5510723;26;20509;-77
2024/04/21 13:09:23;;;;;;;17.63;16.37;;;;;;;;;;5488097;25;20515;-75
2024/04/21 13:11:51;;;;;;;16.83;15.63;;;;;;;;;;5523448;25;20498;-76
2024/04/21 13:14:18;;;;;;;18.63;17.43;;;;;;;;;;5524785;25;20945;-76
2024/04/21 13:16:46;;;;;;;19.07;17.87;;;;;;;;;;5524549;25;20525;-75
2024/04/21 13:19:17;;;;;;;18.00;16.60;;;;;;;;;;5523128;25;20468;-75
2024/04/21 13:21:47;;;;;;;17.83;16.53;;;;;;;;;;5525595;25;20509;-76
2024/04/21 13:24:14;;;;;;;17.27;15.97;;;;;;;;;;5524748;25;20457;-76
2024/04/21 13:26:45;;;;;;;18.37;17.10;;;;;;;;;;5524906;25;20457;-76
2024/04/21 13:29:14;;;;;;;17.10;15.90;;;;;;;;;;5523778;25;20619;-77
2024/04/21 13:31:43;;;;;;;18.57;17.07;;;;;;;;;;5524461;25;20556;-76
2024/04/21 13:34:13;;;;;;;21.07;19.67;;;;;;;;;;5524742;25;20461;-76
2024/04/21 13:36:41;;;;;;;18.50;17.17;;;;;;;;;;5525149;25;20513;-76
2024/04/21 13:39:10;;;;;;;18.10;16.80;;;;;;;;;;5524259;25;20522;-77
2024/04/21 13:41:38;;;;;;;18.17;16.77;;;;;;;;;;5524114;25;21085;-76
2024/04/21 13:44:07;;;;;;;17.93;16.63;;;;;;;;;;5524163;25;20467;-76
2024/04/21 13:46:38;;;;;;;18.30;16.70;;;;;;;;;;5524726;25;20431;-76
2024/04/21 13:49:07;;;;;;;18.80;17.03;;;;;;;;;;5523971;25;20548;-76
2024/04/21 13:51:36;;;;;;;17.87;16.57;;;;;;;;;;5524449;25;20525;-76
2024/04/21 13:54:02;;;;;;;17.73;16.43;;;;;;;;;;5524114;25;20478;-75
2024/04/21 13:56:30;;;;;;;18.83;17.53;;;;;;;;;;5524680;25;20532;-76
2024/04/21 13:58:58;;;;;;;18.63;17.10;;;;;;;;;;5524329;25;20969;-76
2024/04/21 14:01:33;;;;;;;18.97;17.57;;;;;;;;;;5524645;25;20501;-75
2024/04/21 14:04:03;;;;;;;18.17;16.70;;;;;;;;;;5524066;25;20991;-75
2024/04/21 14:06:32;;;;;;;18.37;16.93;;;;;;;;;;5524722;25;20997;-76
2024/04/21 14:08:58;;;;;;;18.13;16.73;;;;;;;;;;5524030;25;20962;-75
2024/04/21 14:11:28;;;;;;;18.23;16.93;;;;;;;;;;5522692;25;20568;-76
2024/04/21 14:13:55;;;;;;;16.83;15.63;;;;;;;;;;5524184;25;20470;-76
2024/04/21 14:16:24;;;;;;;18.47;17.17;;;;;;;;;;5523596;25;20431;-76
2024/04/21 14:18:54;;;;;;;17.87;16.57;;;;;;;;;;5524110;25;20502;-76
2024/04/21 14:21:26;;;;;;;19.17;17.70;;;;;;;;;;5523314;25;20532;-75
2024/04/21 14:24:06;;;;;;;18.40;16.93;;;;;;;;;;5522218;25;20434;-79